• Join FlightAware (Why Join?)
  • Login
  • US Flag 
04:36AM EDT


 

Airport Tracker/Info


-or-


 

Live Flight TrackerFlight Track Log ✈ N5073C ✈ 02-May-2013 ✈ KRNO - KYKM

Flight Track Log - Related Links

Times and Time Zones

All times are in EDT time to prevent confusion due to time zone crossing. See the N5073C flight status page for this flight to view local times or setup timezone preferences in your user account.

Time Position Orientation Groundspeed Altitude Reporting Facility
EDT Latitude Longitude Course Direction KTS MPH feet Rate Location/Type
04:53PM 39.4667 -119.7667 356° North 123 142 4,900  Level Northern Cal TRACON
04:54PM 39.4333 -119.7667 180° South 127 146 5,600 600 Climbing Northern Cal TRACON
04:55PM 39.4167 -119.7500 142° Southeast 125 144 6,200 480 Climbing Northern Cal TRACON
04:56PM 39.4500 -119.7167 38° Northeast 131 151 6,600 480 Climbing Northern Cal TRACON
04:57PM 39.4833 -119.7000 21° North 130 150 7,300 660 Climbing Northern Cal TRACON
04:58PM 39.5167 -119.6833 21° North 132 152 8,000 600 Climbing Northern Cal TRACON
04:59PM 39.5107 -119.7692 356° North  Level Estimated
04:59PM 39.5500 -119.7000 339° North 139 160 8,500  Level Northern Cal TRACON
05:00PM 39.5833 -119.7000 360° North 139 160 9,200 600 Climbing Northern Cal TRACON
05:01PM 39.6167 -119.7167 339° North 138 159 9,700 420 Climbing Northern Cal TRACON
05:02PM 39.6575 -119.7258 350° North 137 158 10,100 420 Climbing Oakland Center
05:03PM 39.6972 -119.7369 348° North 144 166 10,600 480 Climbing Oakland Center
05:04PM 39.7375 -119.7461 350° North 145 167 11,100 480 Climbing Oakland Center
05:05PM 39.7775 -119.7558 349° North 146 168 11,600 360 Climbing Oakland Center
05:06PM 39.8181 -119.7686 346° North 148 170 11,900 360 Climbing Oakland Center
05:07PM 39.8614 -119.7800 349° North 153 176 12,400 300 Climbing Oakland Center
05:08PM 39.9139 -119.7925 350° North 156 180 12,600 60 Climbing Oakland Center
05:09PM 39.9603 -119.8053 348° North 162 186 12,600  Level Oakland Center
05:10PM 40.0047 -119.8169 349° North 164 189 12,600  Level Oakland Center
05:11PM 40.0461 -119.8278 349° North 158 182 12,600  Level Oakland Center
05:12PM 40.0861 -119.8394 347° North 151 174 12,600  Level Oakland Center
05:13PM 40.1272 -119.8506 348° North 149 171 12,600  Level Oakland Center
05:14PM 40.1683 -119.8608 349° North 151 174 12,600  Level Oakland Center
05:15PM 40.2117 -119.8722 349° North 150 173 12,600  Level Oakland Center
05:16PM 40.2497 -119.8817 349° North 149 171 12,600  Level Oakland Center
05:17PM 40.2908 -119.8922 349° North 150 173 12,600  Level Oakland Center
05:19PM 40.3383 -119.9061 347° North 148 170 12,600  Level Oakland Center
05:20PM 40.3789 -119.9178 348° North 148 170 12,600  Level Oakland Center
05:21PM 40.4164 -119.9239 353° North 130 150 12,600  Level Oakland Center
05:22PM 40.4553 -119.9375 345° North 144 166 12,600  Level Oakland Center
05:23PM 40.5033 -119.9497 349° North 145 167 12,600  Level Oakland Center
05:24PM 40.5442 -119.9603 349° North 147 169 12,600  Level Oakland Center
05:25PM 40.5839 -119.9714 348° North 147 169 12,600  Level Oakland Center
05:26PM 40.6253 -119.9822 349° North 148 170 12,600  Level Oakland Center
05:27PM 40.6647 -119.9925 349° North 147 169 12,600  Level Oakland Center
05:28PM 40.7047 -120.0033 348° North 147 169 12,600  Level Oakland Center
05:29PM 40.7442 -120.0144 348° North 146 168 12,600  Level Oakland Center
05:30PM 40.7836 -120.0222 352° North 145 167 12,600  Level Oakland Center
05:31PM 40.8244 -120.0247 357° North 144 166 12,600  Level Oakland Center
05:32PM 40.8736 -120.0286 357° North 145 167 12,600  Level Oakland Center
05:33PM 40.8986 -120.0278 North 148 170 12,600  Level Seattle Center
05:34PM 40.9408 -120.0311 357° North 152 175 12,600  Level Seattle Center
05:35PM 40.9814 -120.0344 356° North 147 169 12,600  Level Seattle Center
05:36PM 41.0239 -120.0375 357° North 150 173 12,600  Level Seattle Center
05:37PM 41.0642 -120.0411 356° North 149 171 12,600  Level Seattle Center
05:38PM 41.1067 -120.0417 359° North 150 173 12,600  Level Seattle Center
05:39PM 41.1494 -120.0444 357° North 152 175 12,600  Level Seattle Center
05:40PM 41.1989 -120.0483 357° North 151 174 12,600  Level Seattle Center
05:41PM 41.2411 -120.0503 358° North 151 174 12,600  Level Seattle Center
05:42PM 41.2831 -120.0531 357° North 151 174 12,600  Level Seattle Center
05:43PM 41.3244 -120.0575 355° North 151 174 12,600  Level Seattle Center
05:44PM 41.3672 -120.0603 357° North 151 174 12,600  Level Seattle Center
05:45PM 41.4117 -120.0644 356° North 154 177 12,600  Level Seattle Center
05:46PM 41.4581 -120.0675 357° North 159 183 12,600  Level Seattle Center
05:47PM 41.5056 -120.0694 358° North 163 188 12,600  Level Seattle Center
05:48PM 41.5508 -120.0750 355° North 165 190 12,600  Level Seattle Center
05:49PM 41.5969 -120.0769 358° North 165 190 12,600  Level Seattle Center
05:50PM 41.6436 -120.0797 357° North 166 191 12,600  Level Seattle Center
05:51PM 41.6897 -120.0831 357° North 167 192 12,600  Level Seattle Center
05:52PM 41.7350 -120.0864 357° North 166 191 12,600  Level Seattle Center
05:53PM 41.7808 -120.0900 357° North 166 191 12,600  Level Seattle Center
05:54PM 41.8358 -120.0947 356° North 165 190 12,600  Level Seattle Center
05:55PM 41.8814 -120.0989 356° North 165 190 12,600  Level Seattle Center
05:56PM 41.9272 -120.0994 359° North 164 189 12,600  Level Seattle Center
05:57PM 41.9731 -120.1028 357° North 164 189 12,600  Level Seattle Center
05:58PM 42.0194 -120.1067 356° North 165 190 12,600  Level Seattle Center
05:59PM 42.0653 -120.1097 357° North 166 191 12,600  Level Seattle Center
06:00PM 42.1108 -120.1136 356° North 165 190 12,600  Level Seattle Center
06:01PM 42.1561 -120.1156 358° North 164 189 12,600  Level Seattle Center
06:02PM 42.2014 -120.1192 357° North 164 189 12,600  Level Seattle Center
06:03PM 42.2478 -120.1236 356° North 164 189 12,600  Level Seattle Center
06:04PM 42.2953 -120.1261 358° North 167 192 12,600  Level Seattle Center
06:05PM 42.3414 -120.1289 357° North 167 192 12,600  Level Seattle Center
06:06PM 42.3956 -120.1328 357° North 165 190 12,600  Level Seattle Center
06:07PM 42.4406 -120.1369 356° North 164 189 12,600  Level Seattle Center
06:08PM 42.4856 -120.1392 358° North 163 188 12,600  Level Seattle Center
06:09PM 42.5306 -120.1433 356° North 163 188 12,600  Level Seattle Center
06:10PM 42.5769 -120.1456 358° North 164 189 12,600  Level Seattle Center
06:11PM 42.6228 -120.1481 358° North 165 190 12,600  Level Seattle Center
06:12PM 42.6694 -120.1522 356° North 166 191 12,600  Level Seattle Center
06:13PM 42.7167 -120.1561 357° North 167 192 12,600  Level Seattle Center
06:14PM 42.7628 -120.1597 357° North 167 192 12,600  Level Seattle Center
06:15PM 42.8089 -120.1631 357° North 167 192 12,600  Level Seattle Center
06:16PM 42.8542 -120.1647 358° North 166 191 12,600  Level Seattle Center
06:17PM 42.8997 -120.1703 355° North 164 189 12,600  Level Seattle Center
06:18PM 42.9542 -120.1742 357° North 164 189 12,600  Level Seattle Center
06:19PM 42.9975 -120.1733 North 162 186 12,600  Level Seattle Center
06:20PM 43.0422 -120.1778 356° North 162 186 12,600  Level Seattle Center
06:21PM 43.0869 -120.1831 355° North 161 185 12,600  Level Seattle Center
06:22PM 43.1339 -120.1864 357° North 164 189 12,600  Level Seattle Center
06:23PM 43.1775 -120.1917 355° North 163 188 12,600  Level Seattle Center
06:24PM 43.2203 -120.1947 357° North 160 184 12,600  Level Seattle Center
06:25PM 43.2606 -120.1947 360° North 153 176 12,600  Level Seattle Center
06:26PM 43.3028 -120.1975 357° North 152 175 12,600  Level Seattle Center
06:27PM 43.3450 -120.2028 355° North 152 175 12,600  Level Seattle Center
06:28PM 43.3867 -120.2017 North 151 174 12,600  Level Seattle Center
06:29PM 43.4303 -120.2058 356° North 158 182 12,600  Level Seattle Center
06:30PM 43.4814 -120.2094 357° North 154 177 12,600  Level Seattle Center
06:31PM 43.5236 -120.2128 357° North 154 177 12,600  Level Seattle Center
06:32PM 43.5650 -120.2153 357° North 155 178 12,600  Level Seattle Center
06:33PM 43.6056 -120.2208 354° North 154 177 12,600  Level Seattle Center
06:35PM 43.6464 -120.2231 358° North 150 173 12,600  Level Seattle Center
06:36PM 43.6869 -120.2211 North 149 171 12,600  Level Seattle Center
06:37PM 43.7275 -120.2258 355° North 149 171 12,600  Level Seattle Center
06:38PM 43.7694 -120.2269 359° North 152 175 12,600  Level Seattle Center
06:39PM 43.8094 -120.2308 356° North 146 168 12,600  Level Seattle Center
06:40PM 43.8517 -120.2339 357° North 149 171 12,600  Level Seattle Center
06:41PM 43.9008 -120.2369 357° North 148 170 12,600  Level Seattle Center
06:42PM 43.9436 -120.2383 359° North 150 173 12,600  Level Seattle Center
06:43PM 43.9847 -120.2442 354° North 149 171 12,600  Level Seattle Center
06:44PM 44.0278 -120.2458 358° North 152 175 12,600  Level Seattle Center
06:45PM 44.0711 -120.2506 356° North 156 180 12,600  Level Seattle Center
06:46PM 44.1125 -120.2528 358° North 151 174 12,600  Level Seattle Center
06:47PM 44.1561 -120.2550 358° North 153 176 12,600  Level Seattle Center
06:48PM 44.2000 -120.2597 356° North 157 181 12,600  Level Seattle Center
06:49PM 44.2419 -120.2633 356° North 153 176 12,600  Level Seattle Center
06:50PM 44.2850 -120.2642 359° North 155 178 12,600  Level Seattle Center
06:51PM 44.3281 -120.2700 354° North 155 178 12,600  Level Seattle Center
06:52PM 44.3706 -120.2717 358° North 155 178 12,600  Level Seattle Center
06:53PM 44.4225 -120.2769 356° North 154 177 12,600  Level Seattle Center
06:54PM 44.4658 -120.2803 357° North 156 180 12,600  Level Seattle Center
06:55PM 44.5089 -120.2833 357° North 155 178 12,600  Level Seattle Center
06:56PM 44.5531 -120.2853 358° North 157 181 12,600 -60 Level Seattle Center
06:57PM 44.5986 -120.2897 356° North 162 186 12,500 -120 Descending Seattle Center
06:58PM 44.6436 -120.2925 357° North 162 186 12,400 -120 Descending Seattle Center
06:59PM 44.6886 -120.2961 357° North 162 186 12,300 -60 Descending Seattle Center
07:00PM 44.7344 -120.3003 356° North 164 189 12,300 -120 Level Seattle Center
07:01PM 44.7803 -120.3025 358° North 164 189 12,100 -180 Descending Seattle Center
07:02PM 44.8239 -120.3069 356° North 160 184 12,000 -120 Descending Seattle Center
07:03PM 44.8675 -120.3094 358° North 157 181 11,900 -180 Descending Seattle Center
07:04PM 44.9194 -120.3142 356° North 156 180 11,700 -240 Descending Seattle Center
07:05PM 44.9644 -120.3161 358° North 159 183 11,500 -240 Descending Seattle Center
07:06PM 45.0092 -120.3200 356° North 160 184 11,300 -240 Descending Seattle Center
07:07PM 45.0544 -120.3242 356° North 161 185 11,100 -240 Descending Seattle Center
07:08PM 45.0994 -120.3264 358° North 162 186 10,900 -240 Descending Seattle Center
07:09PM 45.1431 -120.3311 356° North 160 184 10,700 -300 Descending Seattle Center
07:10PM 45.1847 -120.3344 357° North 155 178 10,400 -300 Descending Seattle Center
07:11PM 45.2267 -120.3372 357° North 152 175 10,200 -240 Descending Seattle Center
07:12PM 45.2694 -120.3419 356° North 153 176 10,000 -240 Descending Seattle Center
07:13PM 45.3108 -120.3447 357° North 151 174 9,800 -240 Descending Seattle Center
07:14PM 45.3531 -120.3481 357° North 151 174 9,600 -240 Descending Seattle Center
07:15PM 45.3947 -120.3511 357° North 151 174 9,400 -180 Descending Seattle Center
07:16PM 45.4344 -120.3553 356° North 147 169 9,300 -120 Descending Seattle Center
07:17PM 45.4739 -120.3556 360° North 143 165 9,200 -120 Descending Seattle Center
07:18PM 45.5211 -120.3597 356° North 141 162 9,100 -120 Descending Seattle Center
07:19PM 45.5614 -120.3639 356° North 143 165 9,000 -120 Descending Seattle Center
07:20PM 45.6003 -120.3664 357° North 141 162 8,900 -120 Descending Seattle Center
07:21PM 45.6386 -120.3575 North 141 162 8,800 -120 Descending Seattle Center
07:22PM 45.6756 -120.3300 27° Northeast 144 166 8,700 -60 Descending Seattle Center
07:23PM 45.7161 -120.3136 16° North 149 171 8,700 -60 Level Seattle Center
07:24PM 45.7522 -120.2886 26° Northeast 147 169 8,600 -120 Descending Seattle Center
07:25PM 45.7908 -120.2653 23° Northeast 148 170 8,500 -120 Descending Seattle Center
07:26PM 45.8283 -120.2414 24° Northeast 148 170 8,400 -120 Descending Seattle Center
07:27PM 45.8658 -120.2178 24° Northeast 148 170 8,300 -120 Descending Seattle Center
07:28PM 45.9033 -120.1931 25° Northeast 148 170 8,200 -120 Descending Seattle Center
07:29PM 45.9400 -120.1675 26° Northeast 147 169 8,100 -60 Descending Seattle Center
07:30PM 45.9833 -120.1336 29° Northeast 148 170 8,100 -60 Level Seattle Center
07:32PM 46.0211 -120.1069 26° Northeast 150 173 8,000 -120 Descending Seattle Center
07:33PM 46.0583 -120.0819 25° Northeast 149 171 7,900 -120 Descending Seattle Center
07:34PM 46.0950 -120.0589 24° Northeast 146 168 7,800 -120 Descending Seattle Center
07:35PM 46.1344 -120.0458 13° North 145 167 7,700 -180 Descending Seattle Center
07:36PM 46.1747 -120.0375 North 146 168 7,500 -300 Descending Seattle Center
07:37PM 46.2169 -120.0281 North 152 175 7,100 -540 Descending Seattle Center
07:38PM 46.2606 -120.0375 351° North 157 181 6,500 -540 Descending Seattle Center
07:39PM 46.3047 -120.0594 341° North 163 188 6,100 -240 Descending Seattle Center
07:40PM 46.3461 -120.0772 343° North 155 178 6,100  Level Seattle Center
07:41PM 46.3750 -120.1114 321° Northwest 143 165 6,100 -240 Level Seattle Center
07:42PM 46.4019 -120.1536 313° West 144 166 5,700 -480 Descending Seattle Center
07:43PM 46.4350 -120.2125 309° West 156 180 5,200 -540 Descending Seattle Center
07:44PM 46.4636 -120.2625 310° West 161 185 4,700 -540 Descending Seattle Center
07:45PM 46.4928 -120.3122 310° West 162 186 4,200 -540 Descending Seattle Center
07:46PM 46.5256 -120.3661 311° West 166 191 3,700 -300 Descending Seattle Center
07:47PM 46.5522 -120.4147 309° West 158 182 3,600 -180 Descending Seattle Center
07:48PM 46.5744 -120.4569 307° West 136 157 3,400 -360 Descending Seattle Center
07:49PM 46.5900 -120.5114 293° West 136 157 2,900 -480 Descending Seattle Center
07:50PM 46.6056 -120.5611 294° West 137 158 2,500 -540 Descending Seattle Center
07:51PM 46.5878 -120.5889 227° Southwest 121 139 1,900 -600 Descending Seattle Center
07:52PM 46.5706 -120.5536 125° Southeast 112 129 1,300 -360 Descending Seattle Center
07:53PM 46.5644 -120.5328 113° Southeast 76 87 1,200 -120 Descending Seattle Center
07:55PM 46.5667 -120.5333 325° Northwest  Level FlightAware Approximate